Time;durP1;ratioP1;P1;durP2;ratioP2;P2;SDS_P1;SDS_P2;PMS_P1;PMS_P2;Temp;Humidity;BMP_temperature;BMP_pressure;BME280_temperature;BME280_humidity;BME280_pressure;Samples;Min_cycle;Max_cycle;Signal;HPM_P1;HPM_P2
2021/06/05 00:01:28;;;;;;;3.50;2.17;;;;;;;32.40;20.29;98674.53;5096100;28;20534;-87
2021/06/05 00:03:56;;;;;;;3.90;2.22;;;;;;;32.54;20.55;98678.78;5096004;28;20032;-88
2021/06/05 00:06:24;;;;;;;3.28;2.20;;;;;;;32.39;20.89;98680.69;5095957;28;20190;-87
2021/06/05 00:08:50;;;;;;;4.72;2.33;;;;;;;32.42;20.67;98683.34;5094732;28;20032;-87
2021/06/05 00:11:20;;;;;;;3.15;2.53;;;;;;;32.40;20.62;98673.72;5096078;28;20064;-87
2021/06/05 00:13:49;;;;;;;6.28;2.90;;;;;;;32.55;20.83;98681.16;5095978;28;20050;-87
2021/06/05 00:16:21;;;;;;;6.32;2.78;;;;;;;32.21;20.29;98677.88;5095958;28;20093;-87
2021/06/05 00:18:48;;;;;;;3.45;2.33;;;;;;;32.32;20.41;98684.66;5095636;28;20052;-87
2021/06/05 00:21:15;;;;;;;7.47;2.45;;;;;;;32.65;20.46;98691.22;5095085;28;20554;-87
2021/06/05 00:23:42;;;;;;;5.70;2.75;;;;;;;32.80;20.34;98696.25;5096094;28;20365;-87
2021/06/05 00:26:08;;;;;;;4.68;2.53;;;;;;;33.01;19.69;98687.50;5095722;28;20075;-87
2021/06/05 00:28:35;;;;;;;5.38;2.40;;;;;;;33.27;19.37;98691.47;5095981;28;20044;-87
2021/06/05 00:31:02;;;;;;;3.85;2.35;;;;;;;33.43;19.78;98687.44;5092051;28;20093;-87
2021/06/05 00:33:28;;;;;;;5.65;2.97;;;;;;;32.80;21.14;98682.00;5075621;28;20028;-87
2021/06/05 00:35:55;;;;;;;5.00;2.20;;;;;;;32.13;21.76;98674.56;5075066;28;20029;-87
2021/06/05 00:38:22;;;;;;;4.68;2.63;;;;;;;31.67;21.96;98678.66;5095050;28;20121;-88
2021/06/05 00:40:51;;;;;;;6.45;2.47;;;;;;;31.95;21.07;98683.09;5092889;28;20491;-87
2021/06/05 00:43:22;;;;;;;4.25;2.22;;;;;;;32.45;20.24;98676.72;5094177;28;20103;-87
2021/06/05 00:45:48;;;;;;;2.72;2.00;;;;;;;32.82;20.05;98679.47;5095700;28;20400;-87
2021/06/05 00:48:17;;;;;;;3.20;2.05;;;;;;;33.11;19.29;98682.56;5095270;28;20036;-87
2021/06/05 00:50:45;;;;;;;3.45;2.03;;;;;;;33.33;19.30;98672.44;5094347;28;20032;-87
2021/06/05 00:53:13;;;;;;;5.32;2.38;;;;;;;33.27;20.33;98667.91;5094990;28;20502;-87
2021/06/05 00:55:42;;;;;;;3.63;2.80;;;;;;;32.14;21.53;98666.84;5095328;28;20506;-88
2021/06/05 00:58:09;;;;;;;3.75;2.72;;;;;;;31.26;22.56;98668.63;5095403;28;20116;-88
2021/06/05 01:01:05;;;;;;;4.63;2.05;;;;;;;31.20;22.63;98664.81;5094917;28;20041;-87
2021/06/05 01:03:32;;;;;;;3.25;2.20;;;;;;;31.70;21.69;98669.97;5095329;28;20035;-88
2021/06/05 01:06:06;;;;;;;4.60;2.20;;;;;;;32.25;20.61;98665.09;5095011;28;20084;-87
2021/06/05 01:08:59;;;;;;;3.35;2.22;;;;;;;32.52;20.17;98665.03;5094999;28;20032;-87
2021/06/05 01:11:40;;;;;;;3.95;2.17;;;;;;;32.74;20.73;98667.66;5094900;28;20043;-87
2021/06/05 01:14:27;;;;;;;4.93;2.95;;;;;;;32.81;20.54;98666.53;5094852;28;20032;-86
2021/06/05 01:17:07;;;;;;;4.13;2.55;;;;;;;32.54;21.46;98659.66;5094922;28;20111;-86
2021/06/05 01:19:54;;;;;;;5.05;2.50;;;;;;;31.47;22.92;98647.88;5094255;28;20408;-87
2021/06/05 01:22:52;;;;;;;5.82;2.47;;;;;;;31.22;23.01;98646.06;5094606;28;20032;-87
2021/06/05 01:25:27;;;;;;;3.92;2.20;;;;;;;31.85;22.42;98636.84;5094637;28;20081;-87
2021/06/05 01:28:19;;;;;;;4.45;2.90;;;;;;;32.06;22.26;98635.13;5093126;28;20082;-87
2021/06/05 01:30:50;;;;;;;3.83;2.63;;;;;;;32.04;21.89;98634.81;5081466;28;20059;-87
2021/06/05 01:33:21;;;;;;;4.70;2.47;;;;;;;31.78;22.17;98637.16;5074172;28;20028;-87
2021/06/05 01:35:49;;;;;;;4.10;2.15;;;;;;;32.09;21.61;98634.94;5074070;28;20052;-88
2021/06/05 01:38:17;;;;;;;4.82;3.10;;;;;;;31.95;22.41;98620.59;5074303;28;20440;-87
2021/06/05 01:40:46;;;;;;;4.80;3.30;;;;;;;31.20;23.64;98623.03;5073913;28;20040;-87
2021/06/05 01:43:17;;;;;;;4.75;2.55;;;;;;;31.08;23.52;98620.34;5073944;28;20097;-87
2021/06/05 01:45:44;;;;;;;2.70;1.92;;;;;;;31.40;22.39;98622.59;5088281;28;20039;-88
2021/06/05 01:48:13;;;;;;;4.15;2.20;;;;;;;32.03;22.14;98621.84;5094260;28;20093;-88
2021/06/05 01:50:43;;;;;;;3.17;2.10;;;;;;;32.41;21.88;98624.94;5094094;28;20038;-87
2021/06/05 01:53:14;;;;;;;3.03;2.37;;;;;;;32.15;21.89;98622.94;5094215;28;20024;-87
2021/06/05 01:56:10;;;;;;;3.13;2.35;;;;;;;31.77;22.76;98618.53;5094094;28;20036;-87
2021/06/05 01:58:37;;;;;;;4.38;2.22;;;;;;;31.02;24.11;98620.16;5085522;28;20456;-88
2021/06/05 02:01:04;;;;;;;3.40;2.38;;;;;;;31.02;23.68;98623.00;5093403;28;20122;-87
2021/06/05 02:03:30;;;;;;;2.75;2.13;;;;;;;31.54;23.01;98622.00;5072754;28;20028;-88
2021/06/05 02:05:56;;;;;;;3.72;2.17;;;;;;;31.77;22.73;98618.53;5074183;28;20385;-87
2021/06/05 02:08:26;;;;;;;3.42;2.45;;;;;;;31.61;23.39;98618.06;5073665;28;20503;-87
2021/06/05 02:11:03;;;;;;;5.63;3.42;;;;;;;31.20;23.53;98617.34;5073543;28;20063;-88
2021/06/05 02:13:52;;;;;;;3.55;2.88;;;;;;;30.80;24.05;98612.97;5073499;28;20029;-88
2021/06/05 02:16:29;;;;;;;4.45;2.50;;;;;;;30.90;23.25;98620.31;5073705;28;20029;-88
2021/06/05 02:19:00;;;;;;;4.82;3.15;;;;;;;31.20;23.28;98608.84;5081497;28;20084;-87
2021/06/05 02:21:30;;;;;;;3.47;2.78;;;;;;;30.87;24.11;98613.47;5093600;28;20476;-87
2021/06/05 02:24:03;;;;;;;3.92;2.72;;;;;;;30.90;23.82;98609.72;5093450;28;20085;-87
2021/06/05 02:26:29;;;;;;;3.45;1.92;;;;;;;31.22;23.08;98608.38;5094270;28;20032;-86
2021/06/05 02:28:59;;;;;;;3.75;2.42;;;;;;;31.82;22.00;98602.91;5084466;28;20024;-87
2021/06/05 02:31:27;;;;;;;3.58;2.70;;;;;;;31.59;23.28;98598.69;5073081;28;20052;-85
2021/06/05 02:33:54;;;;;;;3.90;2.58;;;;;;;30.83;24.20;98603.53;5073283;28;20499;-86
2021/06/05 02:36:21;;;;;;;5.15;3.03;;;;;;;30.21;25.29;98599.91;5084367;28;20112;-86
2021/06/05 02:38:49;;;;;;;4.25;2.45;;;;;;;30.27;24.83;98598.84;5093732;28;20085;-86
2021/06/05 02:41:18;;;;;;;6.60;2.83;;;;;;;30.62;23.92;98599.53;5093553;28;20047;-86
2021/06/05 02:43:48;;;;;;;3.50;1.88;;;;;;;29.71;24.40;98601.00;5093427;28;20027;-87
2021/06/05 02:46:32;;;;;;;2.38;1.80;;;;;;;28.28;26.07;98611.81;5093103;28;20028;-87
2021/06/05 02:49:18;;;;;;;2.65;1.92;;;;;;;27.95;27.02;98607.53;5093186;28;20055;-87
2021/06/05 02:51:51;;;;;;;5.57;2.65;;;;;;;28.52;26.11;98618.72;5093320;28;20385;-87
2021/06/05 02:54:19;;;;;;;2.97;2.20;;;;;;;29.64;24.63;98604.84;5092916;28;20032;-86
2021/06/05 02:56:45;;;;;;;5.93;2.65;;;;;;;30.54;25.33;98610.38;5093757;28;20035;-86
2021/06/05 02:59:11;;;;;;;3.47;2.55;;;;;;;30.74;24.14;98610.75;5093212;28;20028;-86
2021/06/05 03:01:37;;;;;;;2.35;1.63;;;;;;;31.30;22.90;98621.00;5093077;28;20032;-86
2021/06/05 03:04:04;;;;;;;2.97;1.95;;;;;;;31.80;22.02;98608.28;5093137;28;20110;-86
2021/06/05 03:06:31;;;;;;;3.67;2.28;;;;;;;32.20;21.58;98611.72;5093184;28;20577;-86
2021/06/05 03:08:58;;;;;;;3.95;2.15;;;;;;;32.33;21.78;98600.16;5093065;28;20032;-86
2021/06/05 03:11:26;;;;;;;2.63;1.90;;;;;;;32.23;21.55;98604.31;5092834;28;20028;-86
2021/06/05 03:13:53;;;;;;;4.30;1.95;;;;;;;32.13;22.12;98600.69;5095132;28;20086;-87
2021/06/05 03:16:20;;;;;;;4.82;2.33;;;;;;;32.27;22.09;98611.41;5096944;28;20419;-87
2021/06/05 03:18:46;;;;;;;3.00;2.42;;;;;;;32.27;22.10;98625.63;5097134;28;20403;-87
2021/06/05 03:21:16;;;;;;;4.05;2.33;;;;;;;32.06;23.02;98632.28;5096797;28;20028;-86
2021/06/05 03:23:43;;;;;;;4.30;2.45;;;;;;;31.87;23.18;98631.47;5093340;28;20032;-86
2021/06/05 03:26:09;;;;;;;2.20;1.75;;;;;;;32.13;22.06;98629.09;5095430;28;20035;-86
2021/06/05 03:28:36;;;;;;;4.75;2.08;;;;;;;32.46;21.96;98629.97;5078790;28;20040;-86
2021/06/05 03:31:03;;;;;;;3.08;2.05;;;;;;;32.66;21.48;98629.44;5076252;28;20476;-86
2021/06/05 03:33:30;;;;;;;2.92;2.28;;;;;;;32.69;21.68;98637.81;5076452;28;20032;-86
2021/06/05 03:35:57;;;;;;;3.90;2.47;;;;;;;32.18;22.78;98645.53;5076437;28;20028;-86
2021/06/05 03:38:25;;;;;;;2.72;1.75;;;;;;;32.03;22.10;98644.59;5076402;28;20036;-86
2021/06/05 03:40:52;;;;;;;3.42;2.55;;;;;;;30.62;25.16;98653.41;5076184;28;20032;-86
2021/06/05 03:43:20;;;;;;;2.50;1.77;;;;;;;30.45;24.73;98657.72;5079079;28;20028;-86
2021/06/05 03:45:46;;;;;;;5.03;2.53;;;;;;;30.90;24.32;98654.34;5096532;28;20063;-86
2021/06/05 03:48:12;;;;;;;3.38;2.25;;;;;;;31.20;24.15;98656.31;5096790;28;20119;-87
2021/06/05 03:50:43;;;;;;;4.20;2.70;;;;;;;31.25;24.01;98664.22;5096471;28;20043;-86
2021/06/05 03:53:10;;;;;;;2.97;2.55;;;;;;;30.55;25.37;98671.44;5096590;28;20028;-86
2021/06/05 03:55:36;;;;;;;2.25;2.05;;;;;;;30.81;24.66;98680.56;5096324;28;20028;-86
2021/06/05 03:58:03;;;;;;;2.42;1.92;;;;;;;31.27;23.58;98678.72;5096363;28;20038;-86
2021/06/05 04:00:33;;;;;;;3.72;1.92;;;;;;;31.85;22.59;98673.78;5096030;28;20035;-86
2021/06/05 04:02:59;;;;;;;4.00;1.50;;;;;;;32.23;22.47;98683.88;5096527;28;20044;-86
2021/06/05 04:05:27;;;;;;;2.65;1.55;;;;;;;32.34;22.70;98679.28;5096470;28;20024;-86
2021/06/05 04:07:54;;;;;;;4.93;2.30;;;;;;;32.12;23.30;98690.03;5096470;28;20055;-86
2021/06/05 04:10:23;;;;;;;2.65;2.10;;;;;;;31.77;23.82;98698.06;5096039;28;20537;-86
2021/06/05 04:12:50;;;;;;;2.83;1.80;;;;;;;31.95;23.28;98703.75;5095716;28;20032;-86
2021/06/05 04:15:17;;;;;;;2.65;1.80;;;;;;;32.24;22.57;98689.09;5095981;28;20028;-86
2021/06/05 04:17:43;;;;;;;2.15;1.63;;;;;;;32.60;22.19;98691.09;5094514;28;20032;-86
2021/06/05 04:20:12;;;;;;;2.60;1.90;;;;;;;32.83;21.75;98693.25;5095632;28;20431;-86
2021/06/05 04:22:38;;;;;;;2.60;1.95;;;;;;;32.65;22.73;98696.16;5096003;28;20125;-86
2021/06/05 04:25:05;;;;;;;2.92;2.10;;;;;;;32.30;23.34;98703.44;5094474;28;20062;-86
2021/06/05 04:27:31;;;;;;;3.78;2.25;;;;;;;31.43;24.05;98706.84;5075510;28;20028;-86
2021/06/05 04:29:57;;;;;;;3.55;2.50;;;;;;;31.21;24.26;98712.59;5074239;28;20059;-86
2021/06/05 04:32:23;;;;;;;3.47;1.80;;;;;;;30.72;24.70;98711.69;5075410;28;20037;-87
2021/06/05 04:34:49;;;;;;;3.35;2.03;;;;;;;31.27;23.77;98715.59;5082404;28;20071;-87
2021/06/05 04:37:16;;;;;;;2.85;1.70;;;;;;;31.97;23.61;98712.59;5095572;28;20043;-86
2021/06/05 04:39:42;;;;;;;3.65;1.63;;;;;;;32.11;22.60;98722.56;5094967;28;20119;-86
2021/06/05 04:42:09;;;;;;;2.88;2.15;;;;;;;32.22;22.79;98724.91;5095500;28;20377;-86
2021/06/05 04:44:36;;;;;;;3.55;1.70;;;;;;;32.35;22.98;98725.56;5095427;28;20028;-86
2021/06/05 04:47:02;;;;;;;3.03;1.80;;;;;;;32.43;22.74;98718.25;5095461;28;20048;-86
2021/06/05 04:49:28;;;;;;;3.15;1.90;;;;;;;32.75;22.68;98707.00;5095305;28;20063;-86
2021/06/05 04:51:55;;;;;;;2.35;2.03;;;;;;;32.79;23.25;98711.75;5095134;28;20067;-85
2021/06/05 04:54:21;;;;;;;4.65;1.83;;;;;;;32.78;23.58;98701.63;5095185;28;20032;-86
2021/06/05 04:56:49;;;;;;;4.65;2.53;;;;;;;32.51;23.71;98691.13;5094913;28;20476;-86
2021/06/05 04:59:18;;;;;;;3.10;1.90;;;;;;;32.01;24.31;98696.22;5095029;28;20106;-86
2021/06/05 05:01:45;;;;;;;1.73;1.58;;;;;;;32.14;23.75;98695.25;5095498;28;20040;-86
2021/06/05 05:04:11;;;;;;;2.60;1.55;;;;;;;32.48;23.17;98692.03;5095046;28;20024;-86
2021/06/05 05:06:37;;;;;;;2.63;1.67;;;;;;;32.85;23.00;98696.38;5094996;28;20035;-86
2021/06/05 05:09:09;;;;;;;4.30;2.05;;;;;;;32.79;23.45;98694.69;5094801;28;20111;-86
2021/06/05 05:11:35;;;;;;;3.45;2.30;;;;;;;32.40;23.85;98690.78;5094631;28;20369;-86
2021/06/05 05:14:02;;;;;;;2.22;2.03;;;;;;;31.89;24.53;98693.47;5094792;28;20104;-86
2021/06/05 05:16:28;;;;;;;3.08;2.15;;;;;;;31.35;24.98;98691.34;5095092;28;20109;-86
2021/06/05 05:18:55;;;;;;;3.28;2.03;;;;;;;31.32;25.22;98704.41;5094779;28;20047;-86
2021/06/05 05:21:22;;;;;;;3.17;1.90;;;;;;;31.52;24.42;98706.88;5094641;28;20028;-85
2021/06/05 05:23:50;;;;;;;1.95;1.35;;;;;;;31.94;24.37;98719.22;5093567;28;20035;-86
2021/06/05 05:26:16;;;;;;;2.40;1.50;;;;;;;31.82;24.63;98725.84;5091502;28;20064;-86
2021/06/05 05:28:42;;;;;;;2.95;1.80;;;;;;;31.41;25.17;98737.72;5094611;28;20036;-85
2021/06/05 05:31:13;;;;;;;2.22;1.50;;;;;;;31.06;25.49;98750.50;5094850;28;20028;-85
2021/06/05 05:33:40;;;;;;;2.08;1.48;;;;;;;31.22;25.05;98748.22;5097297;28;20024;-84
2021/06/05 05:36:10;;;;;;;1.52;1.35;;;;;;;31.79;24.15;98734.50;5094687;28;20433;-85
2021/06/05 05:38:37;;;;;;;4.72;1.90;;;;;;;32.21;24.39;98729.81;5094692;28;20119;-85
2021/06/05 05:41:05;;;;;;;5.15;2.85;;;;;;;32.29;23.93;98721.75;5093998;28;20036;-85
2021/06/05 05:43:31;;;;;;;5.20;2.17;;;;;;;32.43;24.06;98715.41;5094170;28;20031;-85
2021/06/05 05:45:58;;;;;;;1.70;1.60;;;;;;;32.08;24.88;98724.31;5094325;28;20034;-85
2021/06/05 05:48:25;;;;;;;3.33;1.98;;;;;;;31.93;25.17;98719.69;5094533;28;20043;-85
2021/06/05 05:50:51;;;;;;;2.88;2.28;;;;;;;31.84;25.23;98726.16;5094310;28;20086;-85
2021/06/05 05:53:17;;;;;;;1.95;1.65;;;;;;;31.89;25.00;98725.53;5094094;28;20081;-85
2021/06/05 05:55:44;;;;;;;3.67;2.47;;;;;;;31.77;25.12;98734.19;5093753;28;20028;-85
2021/06/05 05:58:14;;;;;;;3.00;2.10;;;;;;;31.37;25.94;98711.50;5094017;28;20024;-85
2021/06/05 06:00:43;;;;;;;4.28;2.80;;;;;;;31.43;25.70;98698.34;5093778;28;20036;-85
2021/06/05 06:03:09;;;;;;;2.58;1.92;;;;;;;31.35;26.08;98694.97;5093955;28;20491;-85
2021/06/05 06:05:36;;;;;;;3.05;1.80;;;;;;;31.29;25.84;98698.91;5093921;28;20066;-85
2021/06/05 06:08:07;;;;;;;3.65;2.28;;;;;;;31.36;25.86;98698.59;5093919;28;20024;-86
2021/06/05 06:10:33;;;;;;;2.83;1.63;;;;;;;31.32;25.90;98695.91;5093593;28;20072;-86
2021/06/05 06:13:00;;;;;;;3.63;2.33;;;;;;;31.13;26.05;98704.84;5093807;28;20032;-86
2021/06/05 06:15:29;;;;;;;3.53;2.08;;;;;;;31.15;25.91;98696.66;5094098;28;20081;-86
2021/06/05 06:17:56;;;;;;;2.25;1.70;;;;;;;31.45;26.13;98684.47;5093287;28;20127;-85
2021/06/05 06:20:27;;;;;;;2.55;2.35;;;;;;;31.78;25.37;98690.34;5092696;28;20166;-85
2021/06/05 06:22:54;;;;;;;4.57;1.60;;;;;;;31.91;25.18;98690.97;5089671;28;20037;-85
2021/06/05 06:25:23;;;;;;;2.33;2.03;;;;;;;31.89;25.36;98687.81;5073348;28;20033;-85
2021/06/05 06:27:49;;;;;;;2.42;1.83;;;;;;;31.67;25.14;98690.78;5088017;28;20089;-85
2021/06/05 06:30:22;;;;;;;1.95;1.48;;;;;;;31.76;24.78;98695.69;5093874;28;20107;-85
2021/06/05 06:32:52;;;;;;;2.08;1.50;;;;;;;32.01;24.52;98703.94;5094265;28;20028;-85
2021/06/05 06:35:23;;;;;;;2.10;1.40;;;;;;;32.24;24.08;98700.44;5093317;28;20032;-85
2021/06/05 06:37:50;;;;;;;2.53;1.63;;;;;;;32.37;23.93;98703.13;5093220;28;20361;-84
2021/06/05 06:40:18;;;;;;;2.22;1.60;;;;;;;32.45;23.91;98696.63;5093412;28;20028;-84
2021/06/05 06:42:44;;;;;;;2.13;1.73;;;;;;;32.31;23.93;98685.91;5093335;28;20107;-84
2021/06/05 06:45:11;;;;;;;2.08;1.75;;;;;;;32.20;24.26;98690.50;5093698;28;20032;-84
2021/06/05 06:47:38;;;;;;;3.33;2.08;;;;;;;32.16;24.80;98681.38;5094428;28;20549;-85
2021/06/05 06:50:09;;;;;;;2.35;1.70;;;;;;;31.96;25.35;98681.81;5101071;28;20068;-84
2021/06/05 06:52:35;;;;;;;4.53;2.00;;;;;;;31.85;25.51;98673.78;5079506;28;20514;-84
2021/06/05 06:55:01;;;;;;;2.28;2.08;;;;;;;31.40;26.33;98662.34;5079848;28;20034;-84
2021/06/05 06:57:27;;;;;;;3.25;2.15;;;;;;;31.36;26.07;98653.19;5100171;28;20383;-84
2021/06/05 06:59:53;;;;;;;1.88;1.50;;;;;;;31.05;26.87;98650.44;5099934;28;20111;-84
2021/06/05 07:02:19;;;;;;;4.75;2.05;;;;;;;30.90;27.09;98643.75;5100653;28;20028;-84
2021/06/05 07:04:46;;;;;;;2.60;1.90;;;;;;;31.29;27.16;98640.09;5100020;28;20032;-84
2021/06/05 07:07:12;;;;;;;2.63;2.28;;;;;;;31.48;26.83;98637.31;5099584;28;20028;-84
2021/06/05 07:09:38;;;;;;;2.28;1.58;;;;;;;31.87;26.44;98636.38;5100149;28;20032;-83
2021/06/05 07:12:05;;;;;;;3.55;3.08;;;;;;;32.28;25.49;98627.16;5099990;28;20032;-84
2021/06/05 07:14:31;;;;;;;1.65;1.30;;;;;;;32.50;25.18;98627.78;5099898;28;20491;-84
2021/06/05 07:16:59;;;;;;;2.70;2.03;;;;;;;32.57;25.33;98638.81;5099806;28;20028;-84
2021/06/05 07:19:26;;;;;;;2.78;1.50;;;;;;;32.89;24.78;98634.41;5099720;28;20076;-84
2021/06/05 07:21:53;;;;;;;1.88;1.30;;;;;;;33.12;24.24;98630.03;5094819;28;20035;-84
2021/06/05 07:24:19;;;;;;;1.50;1.25;;;;;;;32.64;25.14;98634.84;5082177;28;20043;-84
2021/06/05 07:26:46;;;;;;;2.30;1.50;;;;;;;32.74;24.99;98644.91;5100345;28;20039;-84
2021/06/05 07:29:12;;;;;;;2.10;0.95;;;;;;;33.20;24.54;98645.50;5100792;28;20402;-85
2021/06/05 07:31:50;;;;;;;1.98;1.20;;;;;;;33.26;24.08;98644.34;5099762;28;20522;-85
2021/06/05 07:34:17;;;;;;;2.00;1.08;;;;;;;33.55;23.84;98651.47;5100021;28;20024;-85
2021/06/05 07:36:52;;;;;;;2.00;1.02;;;;;;;33.83;23.24;98644.28;5099735;28;20043;-85
2021/06/05 07:39:23;;;;;;;1.08;0.98;;;;;;;34.06;23.90;98647.09;5099922;28;20024;-85
2021/06/05 07:41:49;;;;;;;1.23;1.00;;;;;;;34.19;23.83;98644.00;5099798;28;20059;-85
2021/06/05 07:44:17;;;;;;;7.47;1.35;;;;;;;34.36;23.49;98644.25;5099631;28;20066;-85
2021/06/05 07:46:46;;;;;;;1.40;1.17;;;;;;;34.44;23.23;98643.41;5099410;28;20361;-85
2021/06/05 07:49:13;;;;;;;2.00;1.13;;;;;;;34.71;22.68;98637.41;5099573;28;20032;-85
2021/06/05 07:51:39;;;;;;;0.82;0.80;;;;;;;34.96;22.12;98641.66;5099453;28;20024;-85
2021/06/05 07:54:05;;;;;;;1.42;0.82;;;;;;;34.85;22.35;98644.34;5099812;28;20065;-85
2021/06/05 07:56:32;;;;;;;1.15;1.00;;;;;;;34.75;22.88;98637.97;5099810;28;20112;-85
2021/06/05 07:58:58;;;;;;;2.17;1.00;;;;;;;34.57;22.89;98638.19;5098762;28;20105;-85
2021/06/05 08:01:25;;;;;;;0.98;0.77;;;;;;;34.73;23.25;98634.81;5096165;28;20488;-85
2021/06/05 08:03:52;;;;;;;1.40;0.82;;;;;;;34.94;22.70;98629.97;5096583;28;20122;-85
2021/06/05 08:06:18;;;;;;;2.70;1.42;;;;;;;35.00;22.80;98627.19;5096008;28;20028;-85
2021/06/05 08:08:46;;;;;;;3.55;1.27;;;;;;;35.09;23.08;98632.81;5096123;28;20545;-86
2021/06/05 08:11:12;;;;;;;1.58;1.40;;;;;;;35.17;22.49;98634.75;5094797;28;20514;-85
2021/06/05 08:13:38;;;;;;;1.02;0.93;;;;;;;35.17;22.62;98636.84;5096077;28;20098;-85
2021/06/05 08:16:05;;;;;;;1.50;0.95;;;;;;;35.09;22.94;98629.97;5096168;28;20103;-85
2021/06/05 08:18:32;;;;;;;1.33;1.08;;;;;;;35.14;23.08;98627.19;5095791;28;20071;-85
2021/06/05 08:21:06;;;;;;;1.30;0.93;;;;;;;35.02;23.38;98605.47;5087753;28;20509;-86
2021/06/05 08:23:35;;;;;;;0.80;0.80;;;;;;;34.96;23.90;98609.50;5075637;28;20032;-86
2021/06/05 08:26:03;;;;;;;1.30;1.17;;;;;;;35.08;23.79;98602.72;5075833;28;20039;-86
2021/06/05 08:28:30;;;;;;;3.50;0.75;;;;;;;35.20;23.58;98601.56;5075345;28;20037;-86
2021/06/05 08:30:59;;;;;;;2.13;1.15;;;;;;;35.27;23.37;98586.84;5075789;28;20028;-86
2021/06/05 08:33:26;;;;;;;1.00;0.90;;;;;;;35.21;24.23;98594.56;5087736;28;20024;-85
2021/06/05 08:35:52;;;;;;;0.85;0.80;;;;;;;35.55;22.69;98593.72;5095593;28;20032;-86
2021/06/05 08:38:21;;;;;;;1.60;0.75;;;;;;;35.49;23.29;98597.78;5095663;28;20028;-85
2021/06/05 08:40:54;;;;;;;3.15;0.75;;;;;;;35.25;23.73;98598.00;5095479;28;20032;-86
2021/06/05 08:44:02;;;;;;;1.58;1.17;;;;;;;35.39;22.89;98582.84;5095851;28;20498;-86
2021/06/05 08:46:39;;;;;;;1.27;1.10;;;;;;;35.71;23.11;98589.53;5088913;28;20510;-87
2021/06/05 08:49:13;;;;;;;0.88;0.85;;;;;;;35.95;22.91;98584.31;5095005;28;20507;-87
2021/06/05 08:51:53;;;;;;;3.30;0.77;;;;;;;36.12;23.69;98576.72;5095450;28;20106;-86
2021/06/05 08:54:32;;;;;;;1.02;0.88;;;;;;;35.76;22.46;98574.50;5095656;28;20028;-86
2021/06/05 08:57:27;;;;;;;1.05;0.68;;;;;;;36.01;22.26;98568.81;5093988;28;20377;-86
2021/06/05 08:59:55;;;;;;;0.95;0.88;;;;;;;36.08;22.85;98561.88;5067366;28;20044;-86
2021/06/05 09:02:25;;;;;;;5.88;1.67;;;;;;;36.25;23.16;98567.72;5074621;28;20051;-87
2021/06/05 09:04:53;;;;;;;0.80;0.63;;;;;;;35.86;23.17;98573.03;5074897;28;20032;-87
2021/06/05 09:07:21;;;;;;;1.15;0.70;;;;;;;35.77;23.39;98570.34;5086052;28;20028;-87
2021/06/05 09:09:49;;;;;;;1.13;0.82;;;;;;;36.35;22.44;98558.47;5095205;28;20031;-87
2021/06/05 09:12:18;;;;;;;1.13;0.70;;;;;;;36.17;22.35;98555.19;5094474;28;20031;-86
2021/06/05 09:14:47;;;;;;;1.05;0.80;;;;;;;36.07;23.53;98548.88;5094888;28;20036;-86
2021/06/05 09:17:18;;;;;;;0.63;0.60;;;;;;;36.63;22.88;98547.25;5094715;28;20457;-86
2021/06/05 09:20:05;;;;;;;0.60;0.60;;;;;;;37.06;22.57;98548.84;5086920;28;20124;-86
2021/06/05 09:22:35;;;;;;;0.60;0.60;;;;;;;37.36;22.07;98550.06;5074502;28;20035;-86
2021/06/05 09:25:39;;;;;;;0.50;0.50;;;;;;;37.20;21.71;98542.16;5091553;28;20024;-87
2021/06/05 09:28:32;;;;;;;0.63;0.55;;;;;;;37.24;21.49;98547.66;5094927;28;20476;-86
2021/06/05 09:31:23;;;;;;;0.60;0.50;;;;;;;37.06;21.60;98545.97;5072861;28;20118;-87
2021/06/05 09:33:49;;;;;;;0.45;0.40;;;;;;;37.43;21.31;98545.94;5074305;28;20100;-86
2021/06/05 09:36:30;;;;;;;0.85;0.55;;;;;;;37.31;21.14;98547.16;5074497;28;20111;-86
2021/06/05 09:38:58;;;;;;;0.40;0.40;;;;;;;37.74;21.19;98542.88;5074938;28;20478;-86
2021/06/05 09:41:41;;;;;;;0.50;0.45;;;;;;;37.99;19.57;98541.94;5086079;28;20375;-86
2021/06/05 09:44:29;;;;;;;0.73;0.60;;;;;;;37.35;21.29;98539.88;5094329;28;20028;-86
2021/06/05 09:47:20;;;;;;;1.00;0.50;;;;;;;37.33;20.71;98545.34;5094126;28;20035;-85
2021/06/05 09:49:50;;;;;;;1.48;1.05;;;;;;;37.21;22.36;98531.47;5087538;28;20044;-86
2021/06/05 09:52:31;;;;;;;0.80;0.50;;;;;;;37.56;21.91;98529.03;5094493;28;20039;-87
2021/06/05 09:55:05;;;;;;;0.40;0.40;;;;;;;37.91;20.83;98540.88;5094457;28;20056;-86
2021/06/05 09:57:31;;;;;;;1.95;0.55;;;;;;;37.37;20.83;98530.78;5093797;28;20058;-86
2021/06/05 10:00:15;;;;;;;0.90;0.60;;;;;;;37.38;20.90;98518.03;5092480;28;20047;-85
2021/06/05 10:02:47;;;;;;;0.50;0.50;;;;;;;37.39;22.44;98534.72;5094320;28;20377;-86
2021/06/05 10:05:27;;;;;;;0.60;0.60;;;;;;;37.53;21.38;98532.94;5092701;28;20036;-86
2021/06/05 10:08:00;;;;;;;1.08;0.60;;;;;;;37.97;21.29;98529.41;5094490;28;20036;-85
2021/06/05 10:10:44;;;;;;;1.55;0.47;;;;;;;38.24;20.14;98516.38;5094138;28;20028;-85
2021/06/05 10:13:22;;;;;;;0.38;0.38;;;;;;;38.07;20.50;98532.81;5093921;28;20036;-85
2021/06/05 10:16:09;;;;;;;0.40;0.40;;;;;;;37.72;20.27;98528.28;5093519;28;20387;-85
2021/06/05 10:18:52;;;;;;;0.40;0.40;;;;;;;37.21;20.11;98529.41;5084111;28;20052;-84
2021/06/05 10:21:44;;;;;;;0.73;0.40;;;;;;;36.15;21.79;98529.97;5073536;28;20088;-85
2021/06/05 10:24:19;;;;;;;0.52;0.52;;;;;;;35.26;22.37;98531.84;5072343;28;20514;-84
2021/06/05 10:26:47;;;;;;;0.43;0.43;;;;;;;35.67;22.74;98535.44;5073449;28;20033;-85
2021/06/05 10:29:39;;;;;;;0.35;0.35;;;;;;;36.30;23.09;98529.81;5079665;28;20132;-85
2021/06/05 10:32:08;;;;;;;0.40;0.40;;;;;;;36.97;22.59;98534.75;5093611;28;20039;-85
2021/06/05 10:34:41;;;;;;;0.90;0.38;;;;;;;37.47;21.67;98529.28;5093578;28;20035;-85
2021/06/05 10:37:24;;;;;;;1.45;0.52;;;;;;;37.80;20.05;98525.69;5094013;28;20043;-84
2021/06/05 10:39:52;;;;;;;1.67;0.57;;;;;;;37.91;20.31;98509.31;5094131;28;20032;-85
2021/06/05 10:42:26;;;;;;;0.50;0.50;;;;;;;37.99;20.35;98512.47;5095606;28;20038;-85
2021/06/05 10:44:54;;;;;;;0.43;0.30;;;;;;;38.18;20.64;98504.13;5093547;28;20042;-86
2021/06/05 10:47:28;;;;;;;0.47;0.47;;;;;;;38.29;19.63;98504.94;5093284;28;20480;-86
2021/06/05 10:50:14;;;;;;;0.50;0.50;;;;;;;38.28;20.23;98502.56;5093506;28;20480;-85
2021/06/05 10:52:46;;;;;;;0.35;0.35;;;;;;;38.17;19.33;98497.59;5093702;28;20032;-86
2021/06/05 10:55:24;;;;;;;0.40;0.40;;;;;;;38.31;19.97;98499.47;5093383;28;20479;-85
2021/06/05 10:58:18;;;;;;;1.20;0.47;;;;;;;38.30;18.13;98500.00;5093298;28;20032;-86
2021/06/05 11:00:57;;;;;;;0.52;0.45;;;;;;;37.79;19.34;98498.31;5093325;28;20123;-86
2021/06/05 11:03:23;;;;;;;0.50;0.30;;;;;;;37.49;20.16;98497.22;5093453;28;20157;-86
2021/06/05 11:06:12;;;;;;;0.30;0.28;;;;;;;37.83;20.08;98488.19;5093401;28;20036;-86
2021/06/05 11:09:00;;;;;;;0.85;0.43;;;;;;;38.13;20.09;98485.63;5055249;28;20040;-86
2021/06/05 11:11:36;;;;;;;0.40;0.40;;;;;;;38.11;18.49;98482.50;5093327;28;20062;-85
2021/06/05 11:14:20;;;;;;;0.35;0.35;;;;;;;37.78;19.88;98479.56;5092973;28;20110;-86
2021/06/05 11:17:11;;;;;;;1.80;0.50;;;;;;;37.57;19.45;98475.38;5088574;28;20028;-85
2021/06/05 11:19:53;;;;;;;0.40;0.40;;;;;;;37.59;20.89;98472.75;5071720;28;20131;-85
2021/06/05 11:22:46;;;;;;;0.40;0.40;;;;;;;37.64;20.19;98472.00;5074460;28;20399;-85
2021/06/05 11:25:13;;;;;;;0.50;0.50;;;;;;;37.44;20.24;98466.50;5092981;28;20048;-86
2021/06/05 11:27:39;;;;;;;0.88;0.45;;;;;;;37.19;23.14;98462.47;5093055;28;20024;-86
2021/06/05 11:30:07;;;;;;;0.65;0.30;;;;;;;37.45;20.40;98460.25;5093061;28;20081;-86
2021/06/05 11:32:50;;;;;;;1.27;0.38;;;;;;;37.80;20.00;98442.56;5086715;28;20024;-85
2021/06/05 11:35:31;;;;;;;0.55;0.55;;;;;;;38.22;19.62;98444.41;5091106;28;20070;-86
2021/06/05 11:37:59;;;;;;;0.40;0.40;;;;;;;38.46;21.22;98441.78;5096976;28;20472;-87
2021/06/05 11:40:46;;;;;;;0.30;0.30;;;;;;;38.43;20.28;98437.09;5096521;28;20035;-86
2021/06/05 11:43:30;;;;;;;0.85;0.60;;;;;;;38.25;19.06;98432.69;5096670;28;20035;-86
2021/06/05 11:46:01;;;;;;;0.40;0.40;;;;;;;38.30;22.79;98439.75;5096614;28;20024;-87
2021/06/05 11:49:01;;;;;;;0.40;0.40;;;;;;;38.99;20.22;98431.97;5096513;28;20039;-87
2021/06/05 11:51:44;;;;;;;0.50;0.47;;;;;;;39.51;18.93;98438.50;5096487;28;20036;-87
2021/06/05 11:54:10;;;;;;;0.40;0.40;;;;;;;39.02;19.23;98431.72;5096496;28;20025;-86